Time;durP1;ratioP1;P1;durP2;ratioP2;P2;SDS_P1;SDS_P2;PMS_P1;PMS_P2;Temp;Humidity;BMP_temperature;BMP_pressure;BME280_temperature;BME280_humidity;BME280_pressure;Samples;Min_cycle;Max_cycle;Signal;HPM_P1;HPM_P2
2022/03/04 00:00:41;;;;;;;;;;;5.90;74.60;;;;;;5078400;28;19943;-64
2022/03/04 00:03:07;;;;;;;;;;;6.00;74.80;;;;;;5077698;28;19908;-64
2022/03/04 00:05:32;;;;;;;;;;;5.80;75.20;;;;;;5096203;28;20072;-64
2022/03/04 00:07:58;;;;;;;;;;;5.80;75.40;;;;;;5096147;28;19912;-64
2022/03/04 00:10:23;;;;;;;;;;;5.70;75.60;;;;;;5095980;28;20335;-63
2022/03/04 00:12:49;;;;;;;;;;;5.80;75.30;;;;;;5078284;28;19989;-64
2022/03/04 00:15:14;;;;;;;;;;;5.70;75.60;;;;;;5095462;28;19908;-64
2022/03/04 00:17:40;;;;;;;;;;;5.60;75.70;;;;;;5078275;28;19908;-64
2022/03/04 00:20:06;;;;;;;;;;;5.60;75.90;;;;;;5077318;28;19965;-64
2022/03/04 00:22:32;;;;;;;;;;;5.60;75.80;;;;;;5096190;28;19920;-64
2022/03/04 00:24:58;;;;;;;;;;;5.70;75.70;;;;;;5095636;28;20008;-70
2022/03/04 00:27:23;;;;;;;;;;;5.70;75.80;;;;;;5096108;28;20002;-65
2022/03/04 00:29:49;;;;;;;;;;;5.60;75.90;;;;;;5077848;28;19969;-65
2022/03/04 00:32:14;;;;;;;;;;;5.60;76.10;;;;;;5095406;28;19908;-68
2022/03/04 00:34:42;;;;;;;;;;;5.50;76.50;;;;;;5096239;28;20007;-65
2022/03/04 00:37:08;;;;;;;;;;;5.50;76.60;;;;;;5095657;28;20353;-65
2022/03/04 00:39:33;;;;;;;;;;;5.50;76.80;;;;;;5078353;28;19912;-66
2022/03/04 00:41:59;;;;;;;;;;;5.60;76.40;;;;;;5095662;28;20013;-71
2022/03/04 00:44:24;;;;;;;;;;;5.60;76.40;;;;;;5096214;28;19908;-65
2022/03/04 00:46:50;;;;;;;;;;;5.60;76.30;;;;;;5095705;28;20321;-64
2022/03/04 00:49:15;;;;;;;;;;;5.60;76.40;;;;;;5095233;28;19959;-65
2022/03/04 00:51:41;;;;;;;;;;;5.50;76.70;;;;;;5095406;28;19909;-64
2022/03/04 00:54:06;;;;;;;;;;;5.50;76.70;;;;;;5077102;28;20405;-65
2022/03/04 00:56:32;;;;;;;;;;;5.50;76.90;;;;;;5077429;28;19923;-63
2022/03/04 00:58:58;;;;;;;;;;;5.30;77.10;;;;;;5076142;28;20376;-65
2022/03/04 01:01:23;;;;;;;;;;;5.40;77.10;;;;;;5094745;28;20002;-64
2022/03/04 01:03:49;;;;;;;;;;;5.30;77.40;;;;;;5095212;28;20348;-64
2022/03/04 01:06:14;;;;;;;;;;;5.40;77.10;;;;;;5076862;28;19912;-64
2022/03/04 01:08:40;;;;;;;;;;;5.40;77.00;;;;;;5077162;28;20486;-64
2022/03/04 01:11:05;;;;;;;;;;;5.40;76.80;;;;;;5076391;28;19923;-72
2022/03/04 01:13:31;;;;;;;;;;;5.20;77.20;;;;;;5095273;28;19951;-65
2022/03/04 01:15:56;;;;;;;;;;;5.20;77.60;;;;;;5095055;28;19908;-64
2022/03/04 01:18:22;;;;;;;;;;;5.10;77.80;;;;;;5094583;28;19916;-64
2022/03/04 01:20:47;;;;;;;;;;;5.10;78.10;;;;;;5094930;28;20281;-65
2022/03/04 01:23:13;;;;;;;;;;;5.20;78.50;;;;;;5094069;28;20289;-65
2022/03/04 01:25:38;;;;;;;;;;;5.10;78.40;;;;;;5077183;28;19920;-65
2022/03/04 01:28:04;;;;;;;;;;;5.20;78.30;;;;;;5094302;28;19952;-66
2022/03/04 01:30:30;;;;;;;;;;;5.10;78.40;;;;;;5094824;28;19912;-64
2022/03/04 01:32:55;;;;;;;;;;;5.10;78.50;;;;;;5094768;28;20020;-65
2022/03/04 01:35:21;;;;;;;;;;;5.10;78.50;;;;;;5076186;28;19918;-64
2022/03/04 01:37:47;;;;;;;;;;;4.90;79.10;;;;;;5076873;28;19959;-68
2022/03/04 01:40:13;;;;;;;;;;;5.00;79.00;;;;;;5094447;28;19915;-65
2022/03/04 01:42:39;;;;;;;;;;;5.10;78.90;;;;;;5077194;28;19908;-65
2022/03/04 01:45:06;;;;;;;;;;;5.10;79.20;;;;;;5094337;28;19915;-65
2022/03/04 01:47:31;;;;;;;;;;;5.10;79.00;;;;;;5076641;28;19912;-64
2022/03/04 01:49:57;;;;;;;;;;;5.30;78.50;;;;;;5095004;28;19965;-64
2022/03/04 01:52:22;;;;;;;;;;;5.10;79.00;;;;;;5075862;28;20324;-65
2022/03/04 01:54:48;;;;;;;;;;;5.00;79.30;;;;;;5094991;28;19919;-66
2022/03/04 01:57:13;;;;;;;;;;;5.00;79.50;;;;;;5095245;28;19913;-65
2022/03/04 01:59:39;;;;;;;;;;;4.90;79.60;;;;;;5077069;28;19916;-65
2022/03/04 02:02:04;;;;;;;;;;;5.00;79.50;;;;;;5094638;28;20367;-68
2022/03/04 02:04:30;;;;;;;;;;;4.90;79.40;;;;;;5096009;28;19914;-66
2022/03/04 02:06:56;;;;;;;;;;;4.80;79.90;;;;;;5095635;28;20276;-65
2022/03/04 02:09:21;;;;;;;;;;;4.80;80.20;;;;;;5095136;28;19912;-65
2022/03/04 02:11:48;;;;;;;;;;;4.80;80.40;;;;;;5094931;28;19908;-65
2022/03/04 02:14:14;;;;;;;;;;;4.80;80.30;;;;;;5095344;28;19934;-65
2022/03/04 02:16:48;;;;;;;;;;;4.90;80.60;;;;;;5078446;28;20265;-66
2022/03/04 02:19:14;;;;;;;;;;;4.80;80.50;;;;;;5095287;28;19908;-65
2022/03/04 02:21:58;;;;;;;;;;;4.90;80.70;;;;;;5095607;28;19931;-66
2022/03/04 02:24:26;;;;;;;;;;;4.80;80.90;;;;;;5094591;28;19950;-68
2022/03/04 02:26:52;;;;;;;;;;;4.80;81.00;;;;;;5094611;28;19920;-64
2022/03/04 02:29:18;;;;;;;;;;;4.90;81.20;;;;;;5093318;28;20334;-64
2022/03/04 02:31:44;;;;;;;;;;;4.80;81.10;;;;;;5075592;28;19912;-64
2022/03/04 02:34:09;;;;;;;;;;;4.70;82.20;;;;;;5075188;28;19909;-66
2022/03/04 02:36:35;;;;;;;;;;;4.70;81.90;;;;;;5075792;28;20277;-65
2022/03/04 02:39:01;;;;;;;;;;;4.70;81.80;;;;;;5094185;28;19908;-64
2022/03/04 02:41:28;;;;;;;;;;;4.70;82.20;;;;;;5093111;28;19919;-64
2022/03/04 02:43:53;;;;;;;;;;;4.70;82.20;;;;;;5075319;28;19961;-65
2022/03/04 02:46:19;;;;;;;;;;;4.60;82.60;;;;;;5092743;28;19916;-64
2022/03/04 02:48:44;;;;;;;;;;;4.60;82.80;;;;;;5094115;28;19935;-64
2022/03/04 02:51:10;;;;;;;;;;;4.60;82.80;;;;;;5093087;28;19914;-64
2022/03/04 02:53:36;;;;;;;;;;;4.60;82.80;;;;;;5075603;28;19912;-67
2022/03/04 02:56:01;;;;;;;;;;;4.60;82.80;;;;;;5094016;28;19912;-64
2022/03/04 02:58:27;;;;;;;;;;;4.60;83.30;;;;;;5075094;28;20353;-65
2022/03/04 03:00:53;;;;;;;;;;;4.50;83.40;;;;;;5076392;28;20269;-66
2022/03/04 03:03:19;;;;;;;;;;;4.50;83.50;;;;;;5093474;28;19908;-69
2022/03/04 03:05:44;;;;;;;;;;;4.50;83.70;;;;;;5093555;28;20053;-65
2022/03/04 03:08:10;;;;;;;;;;;4.30;84.30;;;;;;5075451;28;19958;-70
2022/03/04 03:10:36;;;;;;;;;;;4.40;84.70;;;;;;5094431;28;19912;-66
2022/03/04 03:13:01;;;;;;;;;;;4.30;84.90;;;;;;5093728;28;19916;-65
2022/03/04 03:15:27;;;;;;;;;;;4.30;85.10;;;;;;5092841;28;20337;-66
2022/03/04 03:17:53;;;;;;;;;;;4.40;85.40;;;;;;5093229;28;19908;-65
2022/03/04 03:20:19;;;;;;;;;;;4.20;86.00;;;;;;5092429;28;19909;-69
2022/03/04 03:22:44;;;;;;;;;;;4.20;85.60;;;;;;5094395;28;19912;-65
2022/03/04 03:25:09;;;;;;;;;;;4.20;86.10;;;;;;5096733;28;19912;-64
2022/03/04 03:27:35;;;;;;;;;;;4.30;86.30;;;;;;5097142;28;20003;-65
2022/03/04 03:30:01;;;;;;;;;;;4.20;86.40;;;;;;5097116;28;19965;-65
2022/03/04 03:32:26;;;;;;;;;;;4.10;87.20;;;;;;5096350;28;20250;-65
2022/03/04 03:34:52;;;;;;;;;;;4.10;87.30;;;;;;5097210;28;20353;-66
2022/03/04 03:37:17;;;;;;;;;;;4.00;87.30;;;;;;5078511;28;19958;-66
2022/03/04 03:39:43;;;;;;;;;;;4.20;87.30;;;;;;5078830;28;19919;-70
2022/03/04 03:42:09;;;;;;;;;;;4.10;87.70;;;;;;5096658;28;19915;-64
2022/03/04 03:44:35;;;;;;;;;;;4.20;87.70;;;;;;5078701;28;19908;-65
2022/03/04 03:47:00;;;;;;;;;;;4.10;87.90;;;;;;5078499;28;20254;-65
2022/03/04 03:49:26;;;;;;;;;;;4.20;88.10;;;;;;5096425;28;19912;-65
2022/03/04 03:51:51;;;;;;;;;;;4.00;88.80;;;;;;5096697;28;20006;-64
2022/03/04 03:54:17;;;;;;;;;;;4.00;89.60;;;;;;5096531;28;19912;-69
2022/03/04 03:56:43;;;;;;;;;;;3.90;90.00;;;;;;5078707;28;19908;-64
2022/03/04 03:59:08;;;;;;;;;;;4.00;90.00;;;;;;5078820;28;19912;-65
2022/03/04 04:01:34;;;;;;;;;;;3.80;90.40;;;;;;5096576;28;20014;-65
2022/03/04 04:03:59;;;;;;;;;;;3.90;90.40;;;;;;5096740;28;19951;-67
2022/03/04 04:06:25;;;;;;;;;;;3.80;90.60;;;;;;5096361;28;19919;-64
2022/03/04 04:08:50;;;;;;;;;;;3.70;90.90;;;;;;5096599;28;19912;-65
2022/03/04 04:11:16;;;;;;;;;;;3.80;90.90;;;;;;5095898;28;19961;-65
2022/03/04 04:13:41;;;;;;;;;;;3.70;91.10;;;;;;5078263;28;19962;-67
2022/03/04 04:16:07;;;;;;;;;;;3.70;91.30;;;;;;5096198;28;19961;-65
2022/03/04 04:18:33;;;;;;;;;;;3.70;91.20;;;;;;5095717;28;19967;-65
2022/03/04 04:20:58;;;;;;;;;;;3.60;91.50;;;;;;5096452;28;19974;-65
2022/03/04 04:23:24;;;;;;;;;;;3.70;91.60;;;;;;5095904;28;19924;-65
2022/03/04 04:25:49;;;;;;;;;;;3.70;91.60;;;;;;5096424;28;20266;-67
2022/03/04 04:28:15;;;;;;;;;;;3.70;91.80;;;;;;5095450;28;19969;-66
2022/03/04 04:30:40;;;;;;;;;;;3.70;91.80;;;;;;5096765;28;20274;-67
2022/03/04 04:33:06;;;;;;;;;;;3.60;92.10;;;;;;5095872;28;19912;-67
2022/03/04 04:35:31;;;;;;;;;;;3.50;92.40;;;;;;5095559;28;19908;-66
2022/03/04 04:37:56;;;;;;;;;;;3.40;92.60;;;;;;5096106;28;20365;-64
2022/03/04 04:40:22;;;;;;;;;;;3.40;92.90;;;;;;5065866;28;19999;-67
2022/03/04 04:42:47;;;;;;;;;;;3.40;93.00;;;;;;5091688;28;19908;-66
2022/03/04 04:45:13;;;;;;;;;;;3.30;93.30;;;;;;5095816;28;19939;-71
2022/03/04 04:47:39;;;;;;;;;;;3.50;93.20;;;;;;5095682;28;19964;-65
2022/03/04 04:50:05;;;;;;;;;;;3.40;93.30;;;;;;5077507;28;19912;-67
2022/03/04 04:52:30;;;;;;;;;;;3.40;93.40;;;;;;5095144;28;19941;-71
2022/03/04 04:54:56;;;;;;;;;;;3.40;93.70;;;;;;5077982;28;20010;-67
2022/03/04 04:57:21;;;;;;;;;;;3.40;93.70;;;;;;5094910;28;19916;-66
2022/03/04 04:59:47;;;;;;;;;;;3.30;93.90;;;;;;5077561;28;19915;-66
2022/03/04 05:02:12;;;;;;;;;;;3.30;94.10;;;;;;5095997;28;20296;-68
2022/03/04 05:04:38;;;;;;;;;;;3.30;94.30;;;;;;5094958;28;20427;-64
2022/03/04 05:07:03;;;;;;;;;;;3.30;94.40;;;;;;5095069;28;19955;-65
2022/03/04 05:09:29;;;;;;;;;;;3.20;94.80;;;;;;5094588;28;20285;-65
2022/03/04 05:11:54;;;;;;;;;;;3.30;94.80;;;;;;5096020;28;19915;-64
2022/03/04 05:14:20;;;;;;;;;;;3.20;94.90;;;;;;5095119;28;20020;-66
2022/03/04 05:16:45;;;;;;;;;;;3.20;95.10;;;;;;5095617;28;19970;-67
2022/03/04 05:19:11;;;;;;;;;;;3.20;95.20;;;;;;5077328;28;19909;-67
2022/03/04 05:21:37;;;;;;;;;;;3.10;95.30;;;;;;5076536;28;20303;-65
2022/03/04 05:24:03;;;;;;;;;;;3.10;95.50;;;;;;5095323;28;20384;-67
2022/03/04 05:26:32;;;;;;;;;;;3.10;95.60;;;;;;5076456;28;19916;-65
2022/03/04 05:28:58;;;;;;;;;;;3.20;95.70;;;;;;5095425;28;20336;-67
2022/03/04 05:31:24;;;;;;;;;;;3.10;95.80;;;;;;5094344;28;20284;-66
2022/03/04 05:33:50;;;;;;;;;;;3.10;96.00;;;;;;5077042;28;19908;-65
2022/03/04 05:36:17;;;;;;;;;;;3.10;96.20;;;;;;5094573;28;20245;-72
2022/03/04 05:38:42;;;;;;;;;;;3.10;96.20;;;;;;5095844;28;19962;-75
2022/03/04 05:41:08;;;;;;;;;;;3.00;96.50;;;;;;5077903;28;19908;-65
2022/03/04 05:43:33;;;;;;;;;;;3.00;96.60;;;;;;5076894;28;19981;-65
2022/03/04 05:45:59;;;;;;;;;;;3.00;96.70;;;;;;5095104;28;19908;-67
2022/03/04 05:48:25;;;;;;;;;;;3.10;96.60;;;;;;5094900;28;19912;-67
2022/03/04 05:50:51;;;;;;;;;;;3.00;96.90;;;;;;5094709;28;19915;-66
2022/03/04 05:53:16;;;;;;;;;;;2.90;97.10;;;;;;5094924;28;19912;-66
2022/03/04 05:55:42;;;;;;;;;;;3.00;97.10;;;;;;5076625;28;19912;-67
2022/03/04 05:58:07;;;;;;;;;;;3.10;97.20;;;;;;5095939;28;19908;-76
2022/03/04 06:00:33;;;;;;;;;;;3.00;97.20;;;;;;5096379;28;19999;-65
2022/03/04 06:02:59;;;;;;;;;;;3.00;97.40;;;;;;5095253;28;19908;-65
2022/03/04 06:05:24;;;;;;;;;;;2.90;97.70;;;;;;5075956;28;20352;-65
2022/03/04 06:07:50;;;;;;;;;;;2.90;97.60;;;;;;5093982;28;19912;-69
2022/03/04 06:10:16;;;;;;;;;;;3.00;97.50;;;;;;5076294;28;20405;-65
2022/03/04 06:12:41;;;;;;;;;;;2.90;97.80;;;;;;5094131;28;19908;-65
2022/03/04 06:15:07;;;;;;;;;;;2.90;98.00;;;;;;5094335;28;20388;-66
2022/03/04 06:17:33;;;;;;;;;;;2.90;98.00;;;;;;5075665;28;19908;-66
2022/03/04 06:19:59;;;;;;;;;;;2.90;98.00;;;;;;5094442;28;19908;-67
2022/03/04 06:22:25;;;;;;;;;;;2.90;98.10;;;;;;5076247;28;19912;-65
2022/03/04 06:24:50;;;;;;;;;;;2.90;98.10;;;;;;5076420;28;19931;-66
2022/03/04 06:27:16;;;;;;;;;;;3.00;98.20;;;;;;5076745;28;19919;-64
2022/03/04 06:29:41;;;;;;;;;;;2.90;98.50;;;;;;5095470;28;20346;-67
2022/03/04 06:32:07;;;;;;;;;;;2.90;98.40;;;;;;5078451;28;19908;-65
2022/03/04 06:34:33;;;;;;;;;;;3.00;98.50;;;;;;5077007;28;19915;-64
2022/03/04 06:36:58;;;;;;;;;;;3.00;98.40;;;;;;5090950;28;20419;-70
2022/03/04 06:39:24;;;;;;;;;;;3.10;98.20;;;;;;5081800;28;19916;-65
2022/03/04 06:41:49;;;;;;;;;;;3.10;98.20;;;;;;5078850;28;19908;-66
2022/03/04 06:44:15;;;;;;;;;;;3.10;98.40;;;;;;5066089;28;19915;-68
2022/03/04 06:46:41;;;;;;;;;;;3.10;98.40;;;;;;5085782;28;19916;-65
2022/03/04 06:49:10;;;;;;;;;;;4.00;99.90;;;;;;5075538;28;20007;-69
2022/03/04 06:51:39;;;;;;;;;;;3.80;99.90;;;;;;5088400;28;19975;-69
2022/03/04 06:54:05;;;;;;;;;;;3.80;99.50;;;;;;5073784;28;19969;-68
2022/03/04 06:56:31;;;;;;;;;;;3.60;99.10;;;;;;5075656;28;19912;-65
2022/03/04 06:58:56;;;;;;;;;;;3.80;99.60;;;;;;5092263;28;19908;-69
2022/03/04 07:01:22;;;;;;;;;;;4.20;99.90;;;;;;5074705;28;19995;-74
2022/03/04 07:03:48;;;;;;;;;;;4.30;99.90;;;;;;5093381;28;19909;-68
2022/03/04 07:06:13;;;;;;;;;;;4.60;99.00;;;;;;5075702;28;20376;-66
2022/03/04 07:08:39;;;;;;;;;;;4.90;97.20;;;;;;5074688;28;19912;-69
2022/03/04 07:11:05;;;;;;;;;;;4.90;96.20;;;;;;5065969;28;19912;-68
2022/03/04 07:13:31;;;;;;;;;;;5.10;96.20;;;;;;5089793;28;20007;-73
2022/03/04 07:15:56;;;;;;;;;;;5.40;95.50;;;;;;5094237;28;20242;-66
2022/03/04 07:18:29;;;;;;;;;;;5.60;95.80;;;;;;5076471;28;19998;-67
2022/03/04 07:20:55;;;;;;;;;;;5.70;94.60;;;;;;5076901;28;19908;-66
2022/03/04 07:23:20;;;;;;;;;;;5.80;94.30;;;;;;5094447;28;19999;-67
2022/03/04 07:25:46;;;;;;;;;;;6.10;94.20;;;;;;5075742;28;20364;-69
2022/03/04 07:28:11;;;;;;;;;;;6.40;93.00;;;;;;5094322;28;19912;-69
2022/03/04 07:30:37;;;;;;;;;;;6.30;92.60;;;;;;5093939;28;19912;-66
2022/03/04 07:33:03;;;;;;;;;;;6.60;92.20;;;;;;5078491;28;20349;-69
2022/03/04 07:35:29;;;;;;;;;;;6.50;92.10;;;;;;5076372;28;19909;-68
2022/03/04 07:37:54;;;;;;;;;;;6.80;91.50;;;;;;5095446;28;20396;-66
2022/03/04 07:40:20;;;;;;;;;;;7.00;91.20;;;;;;5077918;28;20277;-67
2022/03/04 07:42:46;;;;;;;;;;;7.30;90.60;;;;;;5077067;28;19915;-71
2022/03/04 07:45:12;;;;;;;;;;;7.30;90.20;;;;;;5077617;28;19915;-65
2022/03/04 07:47:38;;;;;;;;;;;7.50;90.00;;;;;;5095125;28;19916;-71
2022/03/04 07:50:04;;;;;;;;;;;7.70;88.70;;;;;;5095507;28;19912;-67
2022/03/04 07:52:31;;;;;;;;;;;8.20;87.10;;;;;;5074426;28;19966;-67
2022/03/04 07:54:58;;;;;;;;;;;8.30;85.60;;;;;;5061616;28;19992;-67
2022/03/04 07:57:23;;;;;;;;;;;8.40;85.30;;;;;;5056968;28;19908;-67
2022/03/04 07:59:49;;;;;;;;;;;8.50;84.70;;;;;;5056025;28;19908;-67
2022/03/04 08:02:14;;;;;;;;;;;8.50;84.10;;;;;;5075373;28;20279;-66
2022/03/04 08:04:40;;;;;;;;;;;8.80;83.30;;;;;;5074733;28;20004;-69
2022/03/04 08:07:05;;;;;;;;;;;8.80;82.50;;;;;;5056401;28;20281;-70
2022/03/04 08:09:31;;;;;;;;;;;9.00;83.00;;;;;;5076676;28;19912;-70
2022/03/04 08:11:57;;;;;;;;;;;8.90;82.90;;;;;;5083026;28;20361;-68
2022/03/04 08:14:22;;;;;;;;;;;9.20;82.00;;;;;;5095274;28;19928;-66
2022/03/04 08:16:48;;;;;;;;;;;9.40;80.60;;;;;;5076157;28;19991;-67
2022/03/04 08:19:13;;;;;;;;;;;9.20;80.60;;;;;;5086301;28;20346;-68
2022/03/04 08:21:39;;;;;;;;;;;9.50;80.10;;;;;;5091864;28;19968;-64
2022/03/04 08:24:06;;;;;;;;;;;9.80;79.00;;;;;;5068487;28;19916;-66
2022/03/04 08:26:32;;;;;;;;;;;10.10;79.10;;;;;;5079506;28;19916;-69
2022/03/04 08:28:57;;;;;;;;;;;10.30;77.50;;;;;;5087716;28;19919;-69
2022/03/04 08:31:23;;;;;;;;;;;10.00;77.70;;;;;;5093175;28;19942;-67
2022/03/04 08:33:50;;;;;;;;;;;10.40;76.80;;;;;;5079567;28;19965;-67
2022/03/04 08:36:16;;;;;;;;;;;10.20;77.20;;;;;;5077927;28;19937;-66
2022/03/04 08:38:42;;;;;;;;;;;10.70;86.30;;;;;;5096597;28;20020;-66
2022/03/04 08:41:07;;;;;;;;;;;11.00;76.40;;;;;;5094609;28;19916;-68
2022/03/04 08:43:34;;;;;;;;;;;11.10;74.60;;;;;;5096110;28;19912;-68
2022/03/04 08:46:01;;;;;;;;;;;11.30;75.40;;;;;;5073671;28;20428;-65
2022/03/04 08:48:26;;;;;;;;;;;11.40;74.10;;;;;;5070359;28;19963;-68
2022/03/04 08:50:52;;;;;;;;;;;11.40;73.70;;;;;;5072136;28;19935;-66
2022/03/04 08:53:17;;;;;;;;;;;11.40;72.80;;;;;;5092982;28;19912;-67
2022/03/04 08:55:45;;;;;;;;;;;11.70;72.30;;;;;;5097960;28;19973;-69
2022/03/04 08:58:11;;;;;;;;;;;11.50;72.60;;;;;;5090556;28;20338;-66
2022/03/04 09:00:37;;;;;;;;;;;;;;;;;;5080620;28;19955;-66
2022/03/04 09:03:03;;;;;;;;;;;12.10;70.40;;;;;;5060058;28;20358;-66
2022/03/04 09:05:30;;;;;;;;;;;12.40;70.60;;;;;;5060792;28;20277;-65
2022/03/04 09:07:55;;;;;;;;;;;13.20;99.90;;;;;;5055442;28;19935;-66
2022/03/04 09:10:21;;;;;;;;;;;14.00;73.60;;;;;;5073736;28;20361;-66
2022/03/04 09:12:46;;;;;;;;;;;13.70;69.50;;;;;;5091132;28;20007;-67
2022/03/04 09:15:12;;;;;;;;;;;13.20;69.30;;;;;;5082678;28;19923;-67
2022/03/04 09:17:40;;;;;;;;;;;13.40;68.20;;;;;;5080696;28;20402;-66
2022/03/04 09:20:05;;;;;;;;;;;13.30;68.50;;;;;;5089406;28;20361;-65
2022/03/04 09:22:31;;;;;;;;;;;13.30;68.00;;;;;;5074533;28;19913;-68
2022/03/04 09:24:57;;;;;;;;;;;13.20;68.10;;;;;;5093707;28;19924;-66
2022/03/04 09:27:23;;;;;;;;;;;13.40;68.40;;;;;;5075087;28;19916;-65
2022/03/04 09:29:48;;;;;;;;;;;13.80;67.50;;;;;;5068310;28;19947;-70
2022/03/04 09:32:14;;;;;;;;;;;13.90;66.60;;;;;;5072460;28;19921;-68
2022/03/04 09:34:39;;;;;;;;;;;13.50;67.10;;;;;;5080625;28;19918;-71
2022/03/04 09:37:05;;;;;;;;;;;13.80;66.40;;;;;;5085676;28;19916;-64
2022/03/04 09:39:31;;;;;;;;;;;13.90;66.10;;;;;;5070585;28;19908;-73
2022/03/04 09:41:58;;;;;;;;;;;14.20;65.90;;;;;;5070914;28;20353;-65
2022/03/04 09:44:23;;;;;;;;;;;14.50;64.90;;;;;;5062758;28;19912;-66
2022/03/04 09:46:49;;;;;;;;;;;14.70;64.80;;;;;;5080865;28;20303;-65
2022/03/04 09:49:16;;;;;;;;;;;14.90;64.20;;;;;;5085864;28;19947;-65
2022/03/04 09:51:41;;;;;;;;;;;14.10;64.60;;;;;;5075504;28;20074;-64
2022/03/04 09:54:07;;;;;;;;;;;14.20;64.90;;;;;;5056575;28;20387;-64
2022/03/04 09:56:33;;;;;;;;;;;14.40;64.30;;;;;;5071155;28;19913;-72
2022/03/04 09:58:58;;;;;;;;;;;14.80;63.50;;;;;;5071730;28;20354;-65
2022/03/04 10:01:24;;;;;;;;;;;14.30;63.40;;;;;;5072159;28;20338;-65
2022/03/04 10:03:50;;;;;;;;;;;14.30;63.70;;;;;;5038488;28;20340;-66
2022/03/04 10:06:17;;;;;;;;;;;14.80;63.80;;;;;;5086494;28;19962;-64
2022/03/04 10:08:47;;;;;;;;;;;15.40;63.00;;;;;;5075598;28;19916;-66
2022/03/04 10:11:22;;;;;;;;;;;15.30;62.70;;;;;;5082862;28;19985;-65
2022/03/04 10:13:52;;;;;;;;;;;15.40;62.10;;;;;;5071606;28;19909;-65
2022/03/04 10:16:44;;;;;;;;;;;15.50;61.50;;;;;;5053686;28;19909;-65
2022/03/04 10:19:14;;;;;;;;;;;15.70;61.80;;;;;;5078503;28;19912;-65
2022/03/04 10:21:43;;;;;;;;;;;15.60;61.50;;;;;;5071500;28;19954;-65
2022/03/04 10:24:08;;;;;;;;;;;16.10;61.10;;;;;;5089171;28;19920;-64
2022/03/04 10:26:34;;;;;;;;;;;16.20;60.40;;;;;;5054691;28;19977;-69
2022/03/04 10:29:04;;;;;;;;;;;16.20;60.30;;;;;;5071249;28;19916;-65
2022/03/04 10:31:30;;;;;;;;;;;16.10;60.30;;;;;;5067409;28;19962;-66
2022/03/04 10:34:07;;;;;;;;;;;16.20;60.10;;;;;;5090893;28;19908;-66
2022/03/04 10:36:33;;;;;;;;;;;16.60;59.80;;;;;;5072441;28;19908;-66
2022/03/04 10:39:07;;;;;;;;;;;16.10;60.20;;;;;;5090716;28;19984;-67
2022/03/04 10:41:35;;;;;;;;;;;16.70;77.60;;;;;;5071526;28;19909;-69
2022/03/04 10:44:21;;;;;;;;;;;16.80;74.30;;;;;;5065155;28;19912;-65
2022/03/04 10:46:56;;;;;;;;;;;17.20;74.90;;;;;;5081374;28;20469;-66
2022/03/04 10:49:26;;;;;;;;;;;16.90;61.20;;;;;;5072564;28;19934;-66
2022/03/04 10:52:04;;;;;;;;;;;16.90;59.90;;;;;;5052114;28;19909;-65
2022/03/04 10:54:29;;;;;;;;;;;17.40;59.30;;;;;;5056597;28;19935;-65
2022/03/04 10:56:55;;;;;;;;;;;17.40;59.20;;;;;;5061721;28;20366;-66
2022/03/04 10:59:24;;;;;;;;;;;17.80;58.90;;;;;;5079710;28;19913;-66
2022/03/04 11:01:50;;;;;;;;;;;17.70;57.90;;;;;;5069846;28;19909;-66
2022/03/04 11:04:17;;;;;;;;;;;17.80;57.30;;;;;;5070669;28;20005;-66
2022/03/04 11:06:45;;;;;;;;;;;17.00;58.00;;;;;;5051247;28;20098;-67
2022/03/04 11:09:12;;;;;;;;;;;17.40;58.20;;;;;;5070379;28;19965;-67
2022/03/04 11:11:39;;;;;;;;;;;16.60;59.20;;;;;;5051787;28;19908;-65
2022/03/04 11:14:06;;;;;;;;;;;16.90;59.00;;;;;;5052506;28;19920;-66
2022/03/04 11:16:32;;;;;;;;;;;17.40;58.10;;;;;;5052244;28;19916;-66
2022/03/04 11:18:58;;;;;;;;;;;17.80;57.30;;;;;;5069679;28;19909;-66
2022/03/04 11:21:23;;;;;;;;;;;17.70;57.60;;;;;;5052210;28;20181;-65
2022/03/04 11:23:49;;;;;;;;;;;17.90;56.60;;;;;;5063516;28;19920;-66
2022/03/04 11:26:14;;;;;;;;;;;17.40;57.00;;;;;;5071388;28;19928;-65
2022/03/04 11:28:41;;;;;;;;;;;17.90;57.10;;;;;;5090048;28;19912;-66
2022/03/04 11:31:08;;;;;;;;;;;17.60;57.50;;;;;;5090621;28;19915;-66
2022/03/04 11:33:38;;;;;;;;;;;18.10;57.00;;;;;;5090568;28;19914;-65
2022/03/04 11:36:07;;;;;;;;;;;18.50;56.30;;;;;;5088889;28;19916;-65
2022/03/04 11:38:33;;;;;;;;;;;;;;;;;;5071828;28;20395;-65
2022/03/04 11:40:59;;;;;;;;;;;18.80;55.00;;;;;;5071437;28;19908;-67
2022/03/04 11:43:43;;;;;;;;;;;18.80;55.80;;;;;;5091477;28;20003;-67
2022/03/04 11:46:17;;;;;;;;;;;19.00;55.40;;;;;;5094408;28;19908;-67
2022/03/04 11:48:42;;;;;;;;;;;18.90;55.30;;;;;;5094073;28;20047;-67
2022/03/04 11:51:13;;;;;;;;;;;18.70;55.80;;;;;;5075584;28;20000;-66
2022/03/04 11:53:39;;;;;;;;;;;17.60;56.40;;;;;;5075191;28;19912;-78
2022/03/04 11:56:11;;;;;;;;;;;18.70;56.00;;;;;;5076025;28;19965;-66
2022/03/04 11:58:54;;;;;;;;;;;18.90;55.60;;;;;;5076105;28;20353;-67
2022/03/04 12:01:27;;;;;;;;;;;18.80;54.80;;;;;;5075802;28;20302;-66
2022/03/04 12:04:09;;;;;;;;;;;19.00;54.80;;;;;;5093311;28;19908;-67
2022/03/04 12:06:35;;;;;;;;;;;19.10;54.80;;;;;;5075316;28;20450;-66
2022/03/04 12:09:32;;;;;;;;;;;19.10;54.40;;;;;;5093304;28;20024;-67
2022/03/04 12:12:18;;;;;;;;;;;19.10;54.40;;;;;;5037041;28;20434;-66
2022/03/04 12:14:49;;;;;;;;;;;18.60;53.10;;;;;;5092905;28;19951;-67
2022/03/04 12:17:16;;;;;;;;;;;19.30;53.70;;;;;;5071582;28;19912;-66
2022/03/04 12:19:42;;;;;;;;;;;19.60;53.50;;;;;;5091705;28;19912;-66
2022/03/04 12:22:08;;;;;;;;;;;19.50;52.80;;;;;;5064372;28;19912;-67
2022/03/04 12:24:35;;;;;;;;;;;19.70;53.30;;;;;;5047961;28;19931;-72
2022/03/04 12:27:02;;;;;;;;;;;19.50;53.30;;;;;;5067502;28;19970;-66
2022/03/04 12:29:45;;;;;;;;;;;19.90;53.20;;;;;;5051899;28;20258;-66
2022/03/04 12:32:11;;;;;;;;;;;20.20;53.00;;;;;;5052456;28;20262;-66
2022/03/04 12:34:46;;;;;;;;;;;20.40;52.50;;;;;;5035112;28;19917;-67
2022/03/04 12:37:14;;;;;;;;;;;20.40;52.60;;;;;;5030733;28;19910;-66
2022/03/04 12:39:40;;;;;;;;;;;19.60;52.20;;;;;;5030736;28;19964;-66
2022/03/04 12:42:08;;;;;;;;;;;19.60;53.30;;;;;;5029632;28;19909;-66
2022/03/04 12:44:34;;;;;;;;;;;20.00;52.20;;;;;;5030094;28;19916;-67
2022/03/04 12:47:00;;;;;;;;;;;19.90;52.10;;;;;;5029563;28;19924;-66
2022/03/04 12:49:29;;;;;;;;;;;20.00;50.70;;;;;;5013909;28;19913;-67
2022/03/04 12:51:55;;;;;;;;;;;20.10;51.30;;;;;;5012767;28;19913;-66
2022/03/04 12:54:30;;;;;;;;;;;20.50;51.00;;;;;;5026482;28;19924;-66
2022/03/04 12:56:57;;;;;;;;;;;19.80;51.60;;;;;;5032789;28;20102;-66
2022/03/04 12:59:23;;;;;;;;;;;20.00;51.80;;;;;;5032771;28;19917;-66
2022/03/04 13:01:50;;;;;;;;;;;19.70;52.20;;;;;;5049411;28;19932;-65
2022/03/04 13:04:15;;;;;;;;;;;19.90;51.50;;;;;;5049847;28;20473;-67
2022/03/04 13:06:42;;;;;;;;;;;19.90;51.80;;;;;;5033021;28;19912;-67
2022/03/04 13:09:09;;;;;;;;;;;19.70;51.70;;;;;;5050449;28;19917;-66
2022/03/04 13:11:35;;;;;;;;;;;19.60;52.40;;;;;;5033206;28;19912;-65
2022/03/04 13:14:04;;;;;;;;;;;20.00;51.40;;;;;;5055249;28;19920;-66
2022/03/04 13:16:38;;;;;;;;;;;20.00;51.20;;;;;;5054648;28;19954;-65
2022/03/04 13:19:04;;;;;;;;;;;20.20;50.60;;;;;;5053509;28;20349;-66
2022/03/04 13:21:34;;;;;;;;;;;19.60;50.00;;;;;;5054577;28;20004;-66
2022/03/04 13:24:05;;;;;;;;;;;19.80;50.70;;;;;;5070751;28;19928;-66
2022/03/04 13:26:32;;;;;;;;;;;19.80;51.00;;;;;;5089598;28;20285;-67
2022/03/04 13:28:59;;;;;;;;;;;19.20;50.70;;;;;;5073693;28;19935;-66
2022/03/04 13:31:26;;;;;;;;;;;19.70;50.60;;;;;;5091445;28;19912;-66
2022/03/04 13:33:59;;;;;;;;;;;19.80;49.60;;;;;;5073408;28;19914;-67
2022/03/04 13:36:41;;;;;;;;;;;19.70;50.00;;;;;;5084215;28;19916;-66
2022/03/04 13:39:10;;;;;;;;;;;19.60;50.10;;;;;;5070775;28;19962;-65
2022/03/04 13:41:37;;;;;;;;;;;19.60;50.40;;;;;;5081618;28;19918;-71
2022/03/04 13:44:06;;;;;;;;;;;19.10;50.70;;;;;;5069826;28;20011;-66
2022/03/04 13:46:32;;;;;;;;;;;19.30;49.80;;;;;;5073236;28;19957;-67
2022/03/04 13:49:02;;;;;;;;;;;19.00;50.00;;;;;;5091702;28;19912;-66
2022/03/04 13:51:28;;;;;;;;;;;19.20;50.40;;;;;;5069746;28;19920;-66
2022/03/04 13:54:00;;;;;;;;;;;19.20;51.40;;;;;;5073311;28;19913;-66
2022/03/04 13:56:36;;;;;;;;;;;20.00;50.80;;;;;;5082620;28;19916;-58
2022/03/04 13:59:02;;;;;;;;;;;20.30;53.90;;;;;;5072310;28;19955;-57
2022/03/04 14:01:30;;;;;;;;;;;20.70;57.70;;;;;;5073545;28;19908;-57
2022/03/04 14:03:57;;;;;;;;;;;20.80;61.60;;;;;;5090907;28;19908;-56
2022/03/04 14:06:24;;;;;;;;;;;20.70;59.70;;;;;;5073014;28;19908;-58
2022/03/04 14:08:49;;;;;;;;;;;20.70;55.20;;;;;;5090224;28;19920;-58
2022/03/04 14:11:15;;;;;;;;;;;20.40;54.40;;;;;;5091611;28;19908;-58
2022/03/04 14:13:41;;;;;;;;;;;20.40;56.40;;;;;;5091800;28;20387;-58
2022/03/04 14:16:08;;;;;;;;;;;20.60;56.30;;;;;;5082706;28;19916;-58
2022/03/04 14:18:34;;;;;;;;;;;20.50;55.80;;;;;;5064400;28;19991;-58
2022/03/04 14:21:03;;;;;;;;;;;20.30;57.70;;;;;;5067384;28;20321;-57
2022/03/04 14:23:32;;;;;;;;;;;20.30;61.60;;;;;;5062636;28;19984;-58